createdAt,value
2023-02-18T00:00:44.342Z,5.55
2023-02-18T00:01:45.935Z,6.38
2023-02-18T00:02:47.652Z,5.68
2023-02-18T00:03:49.854Z,5.95
2023-02-18T00:04:54.275Z,5.50
2023-02-18T00:05:56.101Z,5.50
2023-02-18T00:06:57.647Z,5.68
2023-02-18T00:07:59.141Z,4.97
2023-02-18T00:09:02.715Z,5.20
2023-02-18T00:10:07.716Z,5.53
2023-02-18T00:11:09.657Z,6.78
2023-02-18T00:12:11.834Z,5.63
2023-02-18T00:13:13.336Z,5.35
2023-02-18T00:14:16.340Z,6.00
2023-02-18T00:15:17.817Z,5.82
2023-02-18T00:16:20.054Z,5.60
2023-02-18T00:17:21.584Z,5.55
2023-02-18T00:18:23.008Z,6.03
2023-02-18T00:19:24.512Z,5.43
2023-02-18T00:20:26.518Z,5.28
2023-02-18T00:21:28.501Z,6.82
2023-02-18T00:22:30.010Z,5.55
2023-02-18T00:23:31.896Z,5.60
2023-02-18T00:24:33.332Z,5.53
2023-02-18T00:25:34.876Z,4.85
2023-02-18T00:26:36.422Z,5.57
2023-02-18T00:27:37.860Z,5.30
2023-02-18T00:28:39.768Z,5.70
2023-02-18T00:29:41.214Z,5.75
2023-02-18T00:30:43.694Z,7.95
2023-02-18T00:31:45.740Z,5.55
2023-02-18T00:32:47.344Z,5.28
2023-02-18T00:33:48.921Z,5.82
2023-02-18T00:34:50.401Z,6.28
2023-02-18T00:35:51.924Z,6.20
2023-02-18T00:36:53.364Z,6.25
2023-02-18T00:37:54.850Z,6.25
2023-02-18T00:39:01.659Z,5.05
2023-02-18T00:40:03.940Z,5.50
2023-02-18T00:41:06.786Z,5.05
2023-02-18T00:42:08.286Z,5.72
2023-02-18T00:43:10.357Z,5.65
2023-02-18T00:44:12.885Z,6.55
2023-02-18T00:45:14.546Z,5.43
2023-02-18T00:46:16.565Z,5.00
2023-02-18T00:47:18.006Z,6.18
2023-02-18T00:48:19.849Z,5.95
2023-02-18T00:49:21.339Z,5.80
2023-02-18T00:50:23.149Z,5.35
2023-02-18T00:51:25.490Z,5.78
2023-02-18T00:52:26.992Z,5.85
2023-02-18T00:53:29.469Z,5.80
2023-02-18T00:54:31.227Z,5.82
2023-02-18T00:55:32.907Z,5.63
2023-02-18T00:56:34.417Z,5.22
2023-02-18T00:57:36.163Z,6.75
2023-02-18T00:58:38.331Z,5.95
2023-02-18T00:59:39.814Z,5.70
2023-02-18T01:00:41.645Z,5.82
2023-02-18T01:01:43.239Z,5.53
2023-02-18T01:02:44.730Z,5.57
2023-02-18T01:03:46.598Z,6.47
2023-02-18T01:04:48.334Z,7.25
2023-02-18T01:05:50.421Z,8.13
2023-02-18T01:06:52.478Z,6.15
2023-02-18T01:07:53.934Z,6.38
2023-02-18T01:08:55.442Z,6.15
2023-02-18T01:09:56.882Z,6.20
2023-02-18T01:10:59.618Z,6.07
2023-02-18T01:12:01.092Z,6.55
2023-02-18T01:13:04.367Z,5.63
2023-02-18T01:14:05.952Z,5.82
2023-02-18T01:15:08.049Z,6.18
2023-02-18T01:16:11.026Z,6.07
2023-02-18T01:17:12.724Z,6.15
2023-02-18T01:18:14.738Z,6.10
2023-02-18T01:19:16.211Z,6.45
2023-02-18T01:20:17.992Z,5.82
2023-02-18T01:21:19.661Z,6.80
2023-02-18T01:22:21.155Z,6.70
2023-02-18T01:23:23.218Z,7.63
2023-02-18T01:24:24.746Z,6.80
2023-02-18T01:25:26.298Z,6.05
2023-02-18T01:26:27.774Z,5.78
2023-02-18T01:27:29.443Z,5.07
2023-02-18T01:28:31.074Z,5.32
2023-02-18T01:29:32.599Z,5.38
2023-02-18T01:30:34.673Z,5.18
2023-02-18T01:31:36.247Z,4.85
2023-02-18T01:32:37.958Z,5.35
2023-02-18T01:33:39.864Z,5.15
2023-02-18T01:34:41.407Z,5.53
2023-02-18T01:35:42.979Z,5.18
2023-02-18T01:36:44.585Z,5.47
2023-02-18T01:37:48.082Z,4.55
2023-02-18T01:38:49.758Z,4.95
2023-02-18T01:39:51.216Z,4.50
2023-02-18T01:40:53.360Z,4.25
2023-02-18T01:41:54.846Z,4.50
2023-02-18T01:42:56.836Z,4.78
2023-02-18T01:44:25.267Z,5.10
2023-02-18T01:45:37.242Z,5.55
2023-02-18T01:46:38.730Z,4.78
2023-02-18T01:47:40.204Z,4.63
2023-02-18T01:48:58.466Z,4.32
2023-02-18T01:50:00.170Z,4.50
2023-02-18T01:51:19.676Z,4.63
2023-02-18T01:52:26.057Z,4.40
2023-02-18T01:53:35.054Z,4.18
2023-02-18T01:54:40.685Z,4.53
2023-02-18T01:55:42.406Z,4.78
2023-02-18T01:56:54.494Z,4.40
2023-02-18T01:57:56.245Z,4.82
2023-02-18T01:59:01.727Z,4.65
2023-02-18T02:00:12.814Z,4.45
2023-02-18T02:01:14.426Z,4.93
2023-02-18T02:02:20.416Z,4.45
2023-02-18T02:03:22.120Z,5.13
2023-02-18T02:04:24.642Z,4.20
2023-02-18T02:05:31.706Z,4.40
2023-02-18T02:06:33.631Z,4.43
2023-02-18T02:07:35.427Z,5.45
2023-02-18T02:08:37.006Z,4.30
2023-02-18T02:09:41.119Z,5.07
2023-02-18T02:11:00.160Z,4.78
2023-02-18T02:12:17.958Z,5.13
2023-02-18T02:13:40.387Z,4.82
2023-02-18T02:14:44.920Z,4.80
2023-02-18T02:15:57.812Z,4.45
2023-02-18T02:17:17.647Z,4.70
2023-02-18T02:18:44.098Z,4.68
2023-02-18T02:20:00.508Z,4.43
2023-02-18T02:21:04.896Z,4.90
2023-02-18T02:22:31.200Z,4.38
2023-02-18T02:23:41.972Z,4.43
2023-02-18T02:25:05.225Z,5.00
2023-02-18T02:26:28.758Z,5.30
2023-02-18T02:28:06.021Z,6.10
2023-02-18T02:29:39.604Z,4.88
2023-02-18T02:30:47.073Z,4.68
2023-02-18T02:32:06.479Z,5.07
2023-02-18T02:33:38.887Z,4.55
2023-02-18T02:34:47.921Z,4.93
2023-02-18T02:36:56.347Z,4.93
2023-02-18T02:38:03.229Z,5.03
2023-02-18T02:39:13.817Z,4.90
2023-02-18T02:40:33.611Z,4.47
2023-02-18T02:42:06.135Z,4.60
2023-02-18T02:43:42.516Z,4.75
2023-02-18T02:44:43.996Z,5.10
2023-02-18T02:45:55.175Z,6.13
2023-02-18T02:47:07.656Z,4.70
2023-02-18T02:48:18.099Z,5.53
2023-02-18T02:49:27.354Z,4.75
2023-02-18T02:50:39.874Z,4.70
2023-02-18T02:51:49.755Z,4.57
2023-02-18T02:52:57.591Z,4.72
2023-02-18T02:54:21.721Z,5.05
2023-02-18T02:55:23.706Z,6.90
2023-02-18T02:56:25.621Z,5.40
2023-02-18T02:57:27.049Z,5.35
2023-02-18T02:58:28.533Z,5.43
2023-02-18T02:59:30.853Z,5.68
2023-02-18T03:00:32.306Z,5.00
2023-02-18T03:01:41.875Z,5.72
2023-02-18T03:02:49.360Z,5.47
2023-02-18T03:04:18.104Z,5.43
2023-02-18T03:05:22.475Z,5.63
2023-02-18T03:06:42.066Z,4.93
2023-02-18T03:08:08.830Z,5.28
2023-02-18T03:09:47.587Z,5.97
2023-02-18T03:11:03.910Z,4.82
2023-02-18T03:12:23.739Z,4.30
2023-02-18T03:13:54.371Z,5.82
2023-02-18T03:15:08.363Z,4.97
2023-02-18T03:16:53.197Z,5.20
2023-02-18T03:18:11.321Z,4.63
2023-02-18T03:19:18.495Z,4.40
2023-02-18T03:20:32.430Z,5.20
2023-02-18T03:21:45.309Z,5.93
2023-02-18T03:22:49.393Z,5.07
2023-02-18T03:24:02.050Z,4.13
2023-02-18T03:25:05.090Z,4.68
2023-02-18T03:26:09.266Z,5.05
2023-02-18T03:27:18.792Z,4.05
2023-02-18T03:28:22.809Z,4.72
2023-02-18T03:29:25.978Z,5.13
2023-02-18T03:30:32.820Z,4.60
2023-02-18T03:31:38.866Z,5.13
2023-02-18T03:32:40.600Z,4.03
2023-02-18T03:33:50.067Z,5.22
2023-02-18T03:34:56.658Z,5.72
2023-02-18T03:35:58.246Z,5.18
2023-02-18T03:37:01.226Z,4.13
2023-02-18T03:39:14.164Z,5.20
2023-02-18T03:40:18.944Z,4.70
2023-02-18T03:41:20.614Z,4.25
2023-02-18T03:42:27.720Z,4.60
2023-02-18T03:43:29.418Z,5.18
2023-02-18T03:44:32.152Z,3.90
2023-02-18T03:45:33.764Z,4.40
2023-02-18T03:46:38.090Z,3.75
2023-02-18T03:47:39.634Z,3.67
2023-02-18T03:48:41.117Z,4.15
2023-02-18T03:49:42.669Z,4.03
2023-02-18T03:50:44.109Z,4.85
2023-02-18T03:51:45.639Z,4.07
2023-02-18T03:52:47.149Z,3.72
2023-02-18T03:53:48.762Z,4.20
2023-02-18T03:54:50.997Z,3.55
2023-02-18T03:55:52.426Z,3.97
2023-02-18T03:56:53.869Z,5.00
2023-02-18T03:57:55.288Z,4.93
2023-02-18T03:58:56.852Z,4.03
2023-02-18T03:59:58.354Z,4.65
2023-02-18T04:00:59.851Z,4.45
2023-02-18T04:02:01.381Z,4.20
2023-02-18T04:03:02.915Z,3.88
2023-02-18T04:04:04.582Z,4.70
2023-02-18T04:05:07.094Z,4.20
2023-02-18T04:06:09.287Z,4.07
2023-02-18T04:07:10.917Z,3.70
2023-02-18T04:08:12.354Z,4.10
2023-02-18T04:09:13.843Z,3.90
2023-02-18T04:10:15.349Z,4.03
2023-02-18T04:11:16.951Z,4.43
2023-02-18T04:12:18.487Z,4.35
2023-02-18T04:13:20.083Z,4.00
2023-02-18T04:14:21.528Z,4.20
2023-02-18T04:15:23.020Z,3.80
2023-02-18T04:16:24.558Z,4.18
2023-02-18T04:17:26.359Z,4.05
2023-02-18T04:18:27.838Z,4.63
2023-02-18T04:19:29.248Z,4.07
2023-02-18T04:20:31.390Z,4.22
2023-02-18T04:21:33.931Z,4.50
2023-02-18T04:22:35.410Z,4.25
2023-02-18T04:23:36.856Z,4.90
2023-02-18T04:24:38.325Z,4.40
2023-02-18T04:25:40.000Z,4.25
2023-02-18T04:26:41.920Z,3.75
2023-02-18T04:27:43.397Z,4.07
2023-02-18T04:28:45.171Z,3.97
2023-02-18T04:29:46.625Z,4.20
2023-02-18T04:30:48.265Z,4.20
2023-02-18T04:31:49.815Z,4.65
2023-02-18T04:32:51.285Z,4.78
2023-02-18T04:33:52.716Z,4.32
2023-02-18T04:34:54.161Z,4.38
2023-02-18T04:35:55.628Z,4.55
2023-02-18T04:36:57.442Z,4.53
2023-02-18T04:37:58.926Z,4.10
2023-02-18T04:39:00.430Z,4.22
2023-02-18T04:40:02.421Z,4.50
2023-02-18T04:41:04.000Z,5.63
2023-02-18T04:42:08.972Z,4.68
2023-02-18T04:43:10.466Z,4.97
2023-02-18T04:44:11.976Z,4.32
2023-02-18T04:45:13.833Z,5.25
2023-02-18T04:46:15.390Z,4.40
2023-02-18T04:47:16.873Z,5.22
2023-02-18T04:48:18.379Z,5.53
2023-02-18T04:49:19.871Z,4.60
2023-02-18T04:50:22.122Z,4.43
2023-02-18T04:51:23.760Z,4.72
2023-02-18T04:52:25.483Z,4.75
2023-02-18T04:53:27.006Z,4.40
2023-02-18T04:54:28.737Z,4.68
2023-02-18T04:55:30.270Z,4.10
2023-02-18T04:56:31.707Z,4.25
2023-02-18T04:57:33.295Z,4.03
2023-02-18T04:58:34.771Z,5.43
2023-02-18T04:59:36.724Z,6.03
2023-02-18T05:00:38.149Z,4.63
2023-02-18T05:01:39.687Z,4.38
2023-02-18T05:02:41.200Z,5.03
2023-02-18T05:03:42.649Z,4.28
2023-02-18T05:04:44.555Z,4.03
2023-02-18T05:05:46.026Z,5.10
2023-02-18T05:06:47.577Z,4.70
2023-02-18T05:07:49.021Z,4.63
2023-02-18T05:08:50.533Z,4.30
2023-02-18T05:09:52.066Z,4.40
2023-02-18T05:10:53.517Z,4.50
2023-02-18T05:11:54.990Z,4.72
2023-02-18T05:12:56.467Z,4.57
2023-02-18T05:13:58.313Z,4.85
2023-02-18T05:14:59.773Z,4.53
2023-02-18T05:16:01.566Z,5.30
2023-02-18T05:17:03.318Z,6.72
2023-02-18T05:18:05.006Z,4.47
2023-02-18T05:19:07.163Z,7.38
2023-02-18T05:20:10.031Z,5.32
2023-02-18T05:22:13.672Z,8.75
2023-02-18T05:23:15.170Z,5.53
2023-02-18T05:24:16.650Z,5.13
2023-02-18T05:25:18.218Z,4.72
2023-02-18T05:26:19.709Z,5.75
2023-02-18T05:27:21.139Z,5.20
2023-02-18T05:28:22.807Z,5.03
2023-02-18T05:29:24.334Z,5.22
2023-02-18T05:30:25.819Z,5.70
2023-02-18T05:31:27.366Z,6.68
2023-02-18T05:32:28.909Z,6.32
2023-02-18T05:33:30.775Z,5.82
2023-02-18T05:34:32.254Z,5.78
2023-02-18T05:35:33.705Z,5.63
2023-02-18T05:36:35.192Z,5.72
2023-02-18T05:37:36.635Z,5.70
2023-02-18T05:38:38.412Z,5.50
2023-02-18T05:39:41.010Z,5.38
2023-02-18T05:40:42.421Z,5.80
2023-02-18T05:41:43.878Z,5.47
2023-02-18T05:42:45.297Z,5.32
2023-02-18T05:44:05.658Z,5.40
2023-02-18T05:45:07.516Z,6.07
2023-02-18T05:46:09.308Z,5.72
2023-02-18T05:47:12.457Z,6.35
2023-02-18T05:49:15.693Z,5.25
2023-02-18T05:50:17.567Z,5.57
2023-02-18T05:51:19.059Z,5.55
2023-02-18T05:52:22.042Z,5.90
2023-02-18T05:55:26.929Z,5.15
2023-02-18T05:56:28.388Z,5.93
2023-02-18T05:57:29.860Z,6.60
2023-02-18T05:58:31.274Z,5.93
2023-02-18T05:59:33.090Z,6.88
2023-02-18T06:00:34.635Z,7.75
2023-02-18T06:01:36.183Z,6.88
2023-02-18T06:02:38.140Z,7.00
2023-02-18T06:03:39.634Z,5.85
2023-02-18T06:04:41.092Z,7.38
2023-02-18T06:05:42.549Z,5.60
2023-02-18T06:06:44.328Z,6.63
2023-02-18T06:07:45.832Z,6.05
2023-02-18T06:08:47.609Z,5.55
2023-02-18T06:09:49.068Z,5.40
2023-02-18T06:10:50.575Z,6.28
2023-02-18T06:11:52.262Z,5.93
2023-02-18T06:12:53.697Z,5.72
2023-02-18T06:13:55.213Z,6.07
2023-02-18T06:14:56.717Z,6.38
2023-02-18T06:15:58.253Z,6.57
2023-02-18T06:16:59.842Z,6.45
2023-02-18T06:18:01.371Z,5.97
2023-02-18T06:19:03.596Z,6.43
2023-02-18T06:20:05.634Z,8.27
2023-02-18T06:21:07.297Z,6.00
2023-02-18T06:22:08.785Z,6.55
2023-02-18T06:23:11.650Z,6.28
2023-02-18T06:25:15.051Z,6.60
2023-02-18T06:26:16.606Z,6.40
2023-02-18T06:27:18.057Z,7.00
2023-02-18T06:28:19.873Z,6.13
2023-02-18T06:29:21.385Z,6.80
2023-02-18T06:30:24.323Z,6.53
2023-02-18T06:31:26.201Z,5.93
2023-02-18T06:32:27.873Z,6.50
2023-02-18T06:33:29.873Z,7.70
2023-02-18T06:34:31.331Z,6.72
2023-02-18T06:35:33.305Z,6.32
2023-02-18T06:36:34.799Z,6.95
2023-02-18T06:37:36.277Z,7.18
2023-02-18T06:38:42.971Z,6.03
2023-02-18T06:39:44.415Z,7.88
2023-02-18T06:40:47.409Z,7.65
2023-02-18T06:42:50.205Z,8.65
2023-02-18T06:43:51.641Z,7.38
2023-02-18T06:44:53.185Z,8.43
2023-02-18T06:45:54.657Z,7.97
2023-02-18T06:46:56.215Z,7.15
2023-02-18T06:47:57.718Z,7.70
2023-02-18T06:48:59.151Z,7.55
2023-02-18T06:50:00.773Z,6.40
2023-02-18T06:51:02.415Z,8.00
2023-02-18T06:52:04.062Z,7.97
2023-02-18T06:53:05.631Z,7.00
2023-02-18T06:54:07.150Z,7.82
2023-02-18T06:55:09.536Z,7.38
2023-02-18T06:56:11.690Z,8.02
2023-02-18T06:57:13.102Z,9.32
2023-02-18T06:58:15.051Z,7.65
2023-02-18T06:59:16.600Z,7.75
2023-02-18T07:00:18.629Z,7.75
2023-02-18T07:01:20.133Z,8.52
2023-02-18T07:02:21.629Z,8.20
2023-02-18T07:03:23.123Z,7.75
2023-02-18T07:04:24.662Z,8.40
2023-02-18T07:05:26.160Z,8.00
2023-02-18T07:06:27.599Z,8.63
2023-02-18T07:07:29.180Z,8.05
2023-02-18T07:08:33.018Z,7.75
2023-02-18T07:09:34.450Z,8.13
2023-02-18T07:10:35.963Z,7.68
2023-02-18T07:11:37.411Z,7.75
2023-02-18T07:12:38.904Z,9.90
2023-02-18T07:13:40.366Z,8.48
2023-02-18T07:14:41.859Z,7.95
2023-02-18T07:15:43.463Z,8.75
2023-02-18T07:16:45.035Z,8.93
2023-02-18T07:17:46.594Z,8.70
2023-02-18T07:18:48.059Z,8.65
2023-02-18T07:19:49.502Z,8.60
2023-02-18T07:20:51.998Z,8.75
2023-02-18T07:21:57.488Z,11.88
2023-02-18T07:22:59.246Z,10.20
2023-02-18T07:24:00.696Z,10.25
2023-02-18T07:25:02.397Z,9.65
2023-02-18T07:26:06.406Z,11.00
2023-02-18T07:27:08.092Z,9.00
2023-02-18T07:28:09.555Z,9.50
2023-02-18T07:29:11.248Z,10.10
2023-02-18T07:30:13.465Z,9.02
2023-02-18T07:31:15.734Z,9.80
2023-02-18T07:32:19.037Z,10.63
2023-02-18T07:33:20.471Z,9.23
2023-02-18T07:34:21.989Z,9.48
2023-02-18T07:35:23.488Z,8.73
2023-02-18T07:36:24.949Z,9.20
2023-02-18T07:37:26.543Z,10.82
2023-02-18T07:38:28.703Z,9.90
2023-02-18T07:39:30.181Z,9.10
2023-02-18T07:40:31.664Z,10.63
2023-02-18T07:41:33.241Z,9.65
2023-02-18T07:42:34.669Z,10.55
2023-02-18T07:43:36.078Z,10.65
2023-02-18T07:44:38.308Z,8.82
2023-02-18T07:45:39.954Z,9.98
2023-02-18T07:46:42.354Z,10.52
2023-02-18T07:47:45.449Z,10.13
2023-02-18T07:48:47.092Z,10.13
2023-02-18T07:49:48.651Z,12.13
2023-02-18T07:50:50.099Z,12.10
2023-02-18T07:51:52.025Z,11.15
2023-02-18T07:52:53.471Z,10.93
2023-02-18T07:53:55.042Z,10.48
2023-02-18T07:54:56.535Z,11.32
2023-02-18T07:56:01.375Z,11.30
2023-02-18T07:57:02.906Z,9.85
2023-02-18T07:58:04.692Z,10.55
2023-02-18T07:59:06.480Z,11.48
2023-02-18T08:00:08.517Z,11.13
2023-02-18T08:01:12.244Z,10.75
2023-02-18T08:02:24.940Z,12.23
2023-02-18T08:03:30.408Z,12.25
2023-02-18T08:04:31.972Z,11.23
2023-02-18T08:05:33.522Z,11.02
2023-02-18T08:06:37.448Z,12.40
2023-02-18T08:07:40.318Z,11.02
2023-02-18T08:08:41.748Z,11.98
2023-02-18T08:09:43.833Z,11.32
2023-02-18T08:10:45.276Z,11.15
2023-02-18T08:11:46.790Z,11.77
2023-02-18T08:12:48.550Z,10.63
2023-02-18T08:13:50.140Z,11.20
2023-02-18T08:14:51.562Z,12.02
2023-02-18T08:15:56.272Z,11.30
2023-02-18T08:16:57.705Z,10.45
2023-02-18T08:17:59.978Z,11.88
2023-02-18T08:19:03.860Z,11.13
2023-02-18T08:20:06.013Z,11.55
2023-02-18T08:21:07.422Z,10.60
2023-02-18T08:22:11.199Z,10.48
2023-02-18T08:23:13.890Z,10.80
2023-02-18T08:24:15.333Z,10.10
2023-02-18T08:25:28.966Z,11.05
2023-02-18T08:26:31.273Z,10.27
2023-02-18T08:27:32.775Z,10.15
2023-02-18T08:28:34.272Z,11.82
2023-02-18T08:29:35.676Z,9.48
2023-02-18T08:30:37.200Z,11.55
2023-02-18T08:31:38.961Z,9.63
2023-02-18T08:32:40.802Z,9.55
2023-02-18T08:33:42.332Z,9.38
2023-02-18T08:34:43.874Z,9.35
2023-02-18T08:35:47.562Z,9.63
2023-02-18T08:36:49.158Z,8.85
2023-02-18T08:37:51.953Z,9.27
2023-02-18T08:38:55.471Z,8.68
2023-02-18T08:39:56.973Z,9.75
2023-02-18T08:41:07.562Z,8.77
2023-02-18T08:42:09.544Z,9.23
2023-02-18T08:43:11.505Z,8.77
2023-02-18T08:44:13.325Z,8.48
2023-02-18T08:45:14.793Z,8.43
2023-02-18T08:46:25.196Z,9.63
2023-02-18T08:48:17.565Z,9.18
2023-02-18T08:48:58.191Z,9.60
2023-02-18T08:49:59.847Z,8.40
2023-02-18T08:51:13.937Z,8.63
2023-02-18T08:52:15.420Z,8.55
2023-02-18T08:53:17.995Z,9.80
2023-02-18T08:54:19.481Z,8.25
2023-02-18T08:55:21.424Z,7.78
2023-02-18T08:56:22.851Z,8.45
2023-02-18T08:57:24.687Z,9.20
2023-02-18T08:58:26.111Z,9.43
2023-02-18T08:59:27.584Z,8.25
2023-02-18T09:00:29.063Z,8.15
2023-02-18T09:01:30.550Z,9.68
2023-02-18T09:02:32.687Z,8.07
2023-02-18T09:03:35.300Z,7.78
2023-02-18T09:04:36.759Z,8.32
2023-02-18T09:05:39.643Z,7.47
2023-02-18T09:08:45.033Z,8.27
2023-02-18T09:09:46.490Z,8.48
2023-02-18T09:10:47.997Z,7.93
2023-02-18T09:11:50.085Z,7.57
2023-02-18T09:12:51.715Z,7.60
2023-02-18T09:13:53.407Z,7.28
2023-02-18T09:14:54.824Z,8.20
2023-02-18T09:16:05.361Z,8.43
2023-02-18T09:17:07.039Z,7.85
2023-02-18T09:18:08.456Z,7.63
2023-02-18T09:19:10.253Z,7.80
2023-02-18T09:20:11.833Z,6.85
2023-02-18T09:21:16.138Z,7.47
2023-02-18T09:22:18.106Z,8.02
2023-02-18T09:23:21.187Z,8.05
2023-02-18T09:24:24.689Z,6.70
2023-02-18T09:25:26.128Z,7.93
2023-02-18T09:26:28.190Z,7.43
2023-02-18T09:27:29.640Z,8.05
2023-02-18T09:28:31.044Z,6.82
2023-02-18T09:29:33.296Z,10.05
2023-02-18T09:30:34.768Z,7.32
2023-02-18T09:31:40.456Z,7.63
2023-02-18T09:32:42.057Z,7.05
2023-02-18T09:33:46.980Z,8.88
2023-02-18T09:34:48.599Z,8.75
2023-02-18T09:35:50.136Z,6.75
2023-02-18T09:36:51.910Z,6.72
2023-02-18T09:37:53.435Z,6.53
2023-02-18T09:38:55.040Z,6.45
2023-02-18T09:39:56.491Z,6.95
2023-02-18T09:41:00.123Z,7.50
2023-02-18T09:42:05.536Z,5.85
2023-02-18T09:43:07.500Z,6.10
2023-02-18T09:44:34.443Z,7.07
2023-02-18T09:45:35.958Z,7.30
2023-02-18T09:46:48.438Z,6.57
2023-02-18T09:47:51.674Z,6.88
2023-02-18T09:48:53.179Z,6.63
2023-02-18T09:49:59.847Z,7.22
2023-02-18T09:51:01.616Z,5.93
2023-02-18T09:52:30.890Z,5.72
2023-02-18T09:53:32.346Z,6.32
2023-02-18T09:54:33.770Z,6.88
2023-02-18T09:55:39.705Z,6.10
2023-02-18T09:56:42.976Z,6.60
2023-02-18T09:57:48.468Z,7.07
2023-02-18T09:58:50.834Z,7.07
2023-02-18T10:00:05.430Z,6.13
2023-02-18T10:01:11.672Z,7.03
2023-02-18T10:02:17.526Z,6.55
2023-02-18T10:03:22.305Z,6.60
2023-02-18T10:04:52.151Z,6.95
2023-02-18T10:06:02.048Z,5.72
2023-02-18T10:07:04.167Z,6.90
2023-02-18T10:08:29.519Z,6.03
2023-02-18T10:09:40.982Z,5.93
2023-02-18T10:10:46.311Z,7.28
2023-02-18T10:11:55.862Z,6.22
2023-02-18T10:12:58.567Z,6.10
2023-02-18T10:14:02.757Z,6.03
2023-02-18T10:15:18.821Z,6.22
2023-02-18T10:16:22.741Z,5.63
2023-02-18T10:17:27.361Z,6.28
2023-02-18T10:18:36.170Z,6.15
2023-02-18T10:19:41.014Z,7.32
2023-02-18T10:20:42.941Z,6.30
2023-02-18T10:21:45.303Z,6.07
2023-02-18T10:22:47.063Z,6.97
2023-02-18T10:24:02.368Z,5.97
2023-02-18T10:25:07.038Z,5.75
2023-02-18T10:26:16.239Z,6.85
2023-02-18T10:27:32.784Z,5.80
2023-02-18T10:28:36.856Z,7.38
2023-02-18T10:29:38.354Z,5.30
2023-02-18T10:30:51.837Z,6.10
2023-02-18T10:32:04.776Z,5.85
2023-02-18T10:33:39.958Z,6.55
2023-02-18T10:35:13.548Z,5.95
2023-02-18T10:38:00.266Z,6.22
2023-02-18T10:39:09.235Z,6.68
2023-02-18T10:40:42.879Z,6.20
2023-02-18T10:42:48.898Z,6.05
2023-02-18T10:44:16.900Z,6.43
2023-02-18T10:45:32.532Z,6.53
2023-02-18T10:47:01.892Z,6.57
2023-02-18T10:48:41.665Z,7.13
2023-02-18T10:50:53.692Z,6.40
2023-02-18T10:51:57.957Z,6.50
2023-02-18T10:53:29.450Z,5.75
2023-02-18T10:54:57.510Z,5.82
2023-02-18T10:55:59.130Z,6.05
2023-02-18T10:57:01.112Z,8.52
2023-02-18T10:58:03.924Z,6.18
2023-02-18T10:59:34.904Z,6.55
2023-02-18T11:00:40.263Z,7.78
2023-02-18T11:01:43.777Z,6.18
2023-02-18T11:02:46.598Z,6.35
2023-02-18T11:03:49.136Z,6.05
2023-02-18T11:04:50.759Z,5.32
2023-02-18T11:05:56.304Z,6.75
2023-02-18T11:07:05.499Z,6.35
2023-02-18T11:08:11.254Z,5.88
2023-02-18T11:09:34.977Z,6.57
2023-02-18T11:10:40.770Z,6.40
2023-02-18T11:11:42.785Z,5.78
2023-02-18T11:12:57.059Z,6.25
2023-02-18T11:14:01.885Z,8.13
2023-02-18T11:15:15.546Z,5.80
2023-02-18T11:16:17.464Z,6.65
2023-02-18T11:17:27.557Z,5.38
2023-02-18T11:18:42.732Z,6.50
2023-02-18T11:21:21.481Z,6.85
2023-02-18T11:22:28.884Z,7.22
2023-02-18T11:23:30.981Z,5.72
2023-02-18T11:24:32.520Z,6.60
2023-02-18T11:25:36.094Z,6.28
2023-02-18T11:26:39.840Z,6.70
2023-02-18T11:27:48.859Z,6.53
2023-02-18T11:30:01.073Z,6.10
2023-02-18T11:31:05.191Z,6.22
2023-02-18T11:32:11.655Z,6.32
2023-02-18T11:33:24.783Z,5.93
2023-02-18T11:34:32.802Z,6.18
2023-02-18T11:35:35.295Z,5.97
2023-02-18T11:36:38.723Z,5.97
2023-02-18T11:37:40.318Z,6.40
2023-02-18T11:38:52.906Z,6.72
2023-02-18T11:39:56.523Z,5.93
2023-02-18T11:41:07.899Z,6.13
2023-02-18T11:42:14.561Z,5.55
2023-02-18T11:43:19.789Z,6.45
2023-02-18T11:44:28.475Z,6.38
2023-02-18T11:45:33.935Z,5.78
2023-02-18T11:46:35.560Z,5.63
2023-02-18T11:47:37.835Z,6.90
2023-02-18T11:48:39.542Z,6.57
2023-02-18T11:49:43.143Z,5.78
2023-02-18T11:50:45.896Z,6.35
2023-02-18T11:51:48.566Z,6.90
2023-02-18T11:52:52.026Z,6.30
2023-02-18T11:54:02.901Z,5.95
2023-02-18T11:55:27.576Z,5.47
2023-02-18T11:56:35.434Z,5.68
2023-02-18T11:57:41.264Z,7.70
2023-02-18T11:58:48.205Z,8.40
2023-02-18T11:59:49.723Z,6.18
2023-02-18T12:00:55.955Z,7.10
2023-02-18T12:02:06.188Z,6.57
2023-02-18T12:03:15.106Z,5.40
2023-02-18T12:04:43.753Z,6.30
2023-02-18T12:05:45.945Z,6.25
2023-02-18T12:07:15.349Z,7.40
2023-02-18T12:08:27.425Z,5.95
2023-02-18T12:09:34.504Z,5.28
2023-02-18T12:10:52.152Z,5.35
2023-02-18T12:12:01.007Z,5.68
2023-02-18T12:13:10.737Z,5.20
2023-02-18T12:14:18.244Z,5.28
2023-02-18T12:15:32.437Z,4.80
2023-02-18T12:16:58.319Z,5.43
2023-02-18T12:18:27.115Z,5.05
2023-02-18T12:19:37.649Z,6.07
2023-02-18T12:20:53.925Z,5.28
2023-02-18T12:21:58.440Z,5.50
2023-02-18T12:23:15.356Z,4.72
2023-02-18T12:24:29.076Z,6.55
2023-02-18T12:25:49.892Z,5.13
2023-02-18T12:27:05.218Z,7.03
2023-02-18T12:28:36.317Z,5.35
2023-02-18T12:30:09.004Z,5.85
2023-02-18T12:31:26.208Z,6.20
2023-02-18T12:32:49.421Z,6.05
2023-02-18T12:34:23.011Z,6.07
2023-02-18T12:36:46.720Z,5.45
2023-02-18T12:38:01.885Z,5.15
2023-02-18T12:40:55.829Z,5.63
2023-02-18T12:41:59.992Z,11.77
2023-02-18T12:43:15.781Z,4.80
2023-02-18T12:44:34.460Z,5.35
2023-02-18T12:46:09.809Z,7.47
2023-02-18T12:47:48.502Z,6.00
2023-02-18T12:49:18.862Z,6.13
2023-02-18T12:50:50.528Z,5.60
2023-02-18T12:52:27.939Z,7.45
2023-02-18T12:53:47.928Z,6.10
2023-02-18T12:55:08.152Z,6.15
2023-02-18T12:56:55.729Z,5.63
2023-02-18T12:58:39.207Z,6.60
2023-02-18T13:00:01.122Z,5.95
2023-02-18T13:01:21.941Z,6.15
2023-02-18T13:02:41.483Z,5.10
2023-02-18T13:03:43.867Z,5.53
2023-02-18T13:05:04.753Z,8.65
2023-02-18T13:06:27.528Z,6.25
2023-02-18T13:07:56.365Z,5.13
2023-02-18T13:09:15.310Z,6.82
2023-02-18T13:10:25.783Z,6.50
2023-02-18T13:11:40.559Z,6.43
2023-02-18T13:12:50.968Z,5.78
2023-02-18T13:13:58.040Z,6.32
2023-02-18T13:15:13.709Z,5.47
2023-02-18T13:16:19.822Z,7.10
2023-02-18T13:17:21.916Z,6.20
2023-02-18T13:18:39.298Z,6.32
2023-02-18T13:19:52.002Z,5.72
2023-02-18T13:21:01.080Z,5.25
2023-02-18T13:23:06.495Z,5.05
2023-02-18T13:24:12.982Z,4.82
2023-02-18T13:25:15.425Z,5.95
2023-02-18T13:26:18.909Z,6.68
2023-02-18T13:27:24.682Z,5.35
2023-02-18T13:28:37.607Z,5.55
2023-02-18T13:29:52.562Z,5.60
2023-02-18T13:31:21.893Z,5.30
2023-02-18T13:32:50.950Z,6.10
2023-02-18T13:34:07.505Z,5.40
2023-02-18T13:35:32.524Z,5.38
2023-02-18T13:36:43.174Z,6.05
2023-02-18T13:37:55.741Z,5.22
2023-02-18T13:39:06.598Z,6.40
2023-02-18T13:40:19.741Z,5.03
2023-02-18T13:41:21.716Z,5.45
2023-02-18T13:42:32.839Z,6.22
2023-02-18T13:43:35.985Z,4.63
2023-02-18T13:45:01.786Z,4.90
2023-02-18T13:46:18.850Z,5.28
2023-02-18T13:47:40.454Z,5.63
2023-02-18T13:48:52.895Z,5.40
2023-02-18T13:49:55.423Z,4.72
2023-02-18T13:51:04.902Z,5.75
2023-02-18T13:52:07.680Z,5.10
2023-02-18T13:53:09.304Z,5.65
2023-02-18T13:54:15.439Z,5.90
2023-02-18T13:55:20.280Z,5.50
2023-02-18T13:56:29.109Z,6.25
2023-02-18T13:57:30.728Z,5.38
2023-02-18T13:58:43.210Z,4.75
2023-02-18T13:59:49.179Z,6.13
2023-02-18T14:00:55.957Z,5.50
2023-02-18T14:02:22.327Z,4.78
2023-02-18T14:03:44.039Z,5.10
2023-02-18T14:04:45.663Z,5.43
2023-02-18T14:05:47.430Z,5.18
2023-02-18T14:07:23.074Z,5.85
2023-02-18T14:08:36.639Z,5.25
2023-02-18T14:09:43.357Z,5.53
2023-02-18T14:11:14.390Z,5.13
2023-02-18T14:12:30.866Z,6.47
2023-02-18T14:14:17.137Z,5.63
2023-02-18T14:15:18.500Z,5.40
2023-02-18T14:16:20.417Z,5.75
2023-02-18T14:17:21.837Z,5.50
2023-02-18T14:18:32.130Z,5.50
2023-02-18T14:19:33.620Z,5.43
2023-02-18T14:20:38.402Z,5.72
2023-02-18T14:21:42.830Z,6.25
2023-02-18T14:22:47.427Z,5.65
2023-02-18T14:23:51.851Z,5.43
2023-02-18T14:25:02.581Z,5.68
2023-02-18T14:26:13.011Z,5.50
2023-02-18T14:27:16.883Z,6.30
2023-02-18T14:28:33.794Z,6.28
2023-02-18T14:29:35.309Z,5.35
2023-02-18T14:30:41.456Z,5.97
2023-02-18T14:31:47.678Z,5.53
2023-02-18T14:32:56.228Z,5.45
2023-02-18T14:34:00.807Z,5.53
2023-02-18T14:35:44.466Z,7.53
2023-02-18T14:36:55.441Z,6.75
2023-02-18T14:38:23.376Z,7.15
2023-02-18T14:39:39.693Z,6.32
2023-02-18T14:41:02.419Z,5.97
2023-02-18T14:42:26.127Z,6.80
2023-02-18T14:43:40.077Z,6.25
2023-02-18T14:45:09.741Z,6.63
2023-02-18T14:46:29.285Z,7.07
2023-02-18T14:47:56.075Z,6.93
2023-02-18T14:49:13.589Z,6.78
2023-02-18T14:50:20.640Z,7.63
2023-02-18T14:51:25.776Z,6.93
2023-02-18T14:52:31.897Z,7.57
2023-02-18T14:53:40.552Z,8.00
2023-02-18T14:54:42.287Z,8.27
2023-02-18T14:55:47.688Z,7.95
2023-02-18T14:56:56.380Z,7.00
2023-02-18T14:58:05.910Z,7.95
2023-02-18T14:59:07.826Z,6.45
2023-02-18T15:00:17.240Z,7.50
2023-02-18T15:01:26.418Z,6.75
2023-02-18T15:02:30.982Z,7.00
2023-02-18T15:03:32.411Z,8.00
2023-02-18T15:04:33.836Z,7.57